Observations for CLEVELAND HOPKINS, OH (CLE)

KCLE 142351Z 25007KT 10SM FEW031 SCT250 M09/M12 A3010 RMK AO2 SLP206 4/004 T10891117 11028 21089 53021  
KCLE 142251Z 26008KT 10SM FEW023 OVC031 M06/M10 A3008 RMK AO2 SLP196 T10611100  
KCLE 142230Z 27006KT 10SM SCT025 BKN033 BKN250 M06/M10 A3007 RMK AO2 T10561100
KCLE 142151Z 26008KT 10SM BKN028 BKN033 BKN250 M05/M10 A3005 RMK AO2 SLP186 T10501100   
KCLE 142133Z 27010KT 10SM SCT024 OVC030 M04/M09 A3004 RMK AO2 T10441094
KCLE 142051Z 30009KT 10SM BKN025 OVC029 M04/M09 A3004 RMK AO2 SLP182 T10441094 53007
KCLE 141951Z 27009KT 10SM BKN024 BKN250 M04/M09 A3002 RMK AO2 SLP176 T10391094  
KCLE 141851Z 29008G15KT 10SM BKN026 BKN250 M03/M09 A3001 RMK AO2 SLP173 T10331094   
KCLE 141814Z 30011KT 10SM BKN028 BKN034 M03/M09 A3002 RMK AO2 T10331089
KCLE 141751Z 28009KT 10SM FEW029 BKN032 M03/M09 A3001 RMK AO2 SLP174 4/005 933008 60000 T10331094 11028 21044 50013 
KCLE 141651Z 27006KT 10SM SCT029 BKN033 M03/M09 A3003 RMK AO2 SLP179 T10281094  
KCLE 141515Z 34009KT 9SM -SN SCT023 BKN030 M04/M09 A2999 RMK AO2 P0000 T10391094
KCLE 141451Z 32010KT 9SM -SN BKN021 OVC036 M04/M08 A2998 RMK AO2 SNB26 SLP162 P0000 60000 T10441083 51044   
KCLE 141433Z 31007KT 8SM -SN SCT022 BKN029 OVC036 M04/M09 A2996 RMK AO2 SNB26 P0000 T10441094
KCLE 141351Z 32007KT 10SM SCT027 BKN035 M04/M10 A2994 RMK AO2 SLP148 T10441100  
KCLE 141251Z 33014KT 9SM BKN032 M04/M10 A2990 RMK AO2 SLP136 T10441100  
KCLE 141151Z 36010KT 10SM BKN030 BKN037 M04/M09 A2984 RMK AO2 SNE04 SLP116 P0000 60006 70030 4/005 T10391089 11022 21044 51066  
KCLE 141138Z 36010KT 10SM SCT026 BKN033 BKN039 M04/M09 A2983 RMK AO2 SNE04 P0000 T10391094
KCLE 141051Z 36014KT 9SM -SN FEW017 OVC024 M04/M08 A2979 RMK AO2 SLP098 P0000 T10391078 
KCLE 141028Z 35014KT 9SM -SN BKN017 OVC024 M04/M07 A2976 RMK AO2 P0000 T10391072
KCLE 140951Z 34018G27KT 5SM -SN BLSN OVC014 M04/M06 A2972 RMK AO2 PK WND 33027/0946 SLP076 P0000 T10391061  
KCLE 140855Z 33016G24KT 2SM -SN BR FEW007 OVC015 M02/M04 A2965 RMK AO2 PRESRR P0000 T10221044
KCLE 140901Z 33017KT 3SM -SN BLSN BKN013 OVC019 M02/M04 A2966 RMK AO2 PRESRR P0000 T10221044
KCLE 140851Z 33018G26KT 3SM -SN BR FEW007 OVC015 M02/M04 A2964 RMK AO2 PK WND 34026/0842 PRESRR SLP048 SNINCR 1/5 P0004 60006 T10221044 53050   
KCLE 140843Z 34021G26KT 3SM -SN BR BKN009 OVC015 M02/M04 A2963 RMK AO2 PK WND 34026/0842 P0004 T10221044
KCLE 140806Z 36008KT 1 3/4SM -SN BR BKN021 BKN027 OVC036 M02/M04 A2960 RMK AO2 P0000 T10221044
KCLE 140817Z 34009KT 3/4SM -SN BR BKN013 OVC020 M02/M04 A2961 RMK AO2 P0000 T10221039
KCLE 140824Z 35007KT 3/4SM -SN BR BKN009 OVC020 M02/M04 A2962 RMK AO2 P0002 T10221039
KCLE 140849Z 33019G26KT 3SM -SN BR FEW007 OVC015 M02/M04 A2964 RMK AO2 PK WND 34026/0842 PRESRR SNINCR 1/5 P0004
KCLE 140751Z 36009KT 6SM -SN BR SCT014 BKN027 OVC037 M02/M04 A2958 RMK AO2 PRESRR SLP026 P0001 T10221044
KCLE 140729Z 01006KT 5SM -SN BR SCT010 BKN016 OVC035 M03/M04 A2955 RMK AO2 PRESRR P0000 T10281044
KCLE 140721Z 02008KT 7SM SCT008 BKN014 OVC022 M03/M04 A2954 RMK AO2 SNE21 PRESRR P0000 T10281044
KCLE 140656Z 03004KT 3SM -SN BR BKN008 OVC014 M04/M06 A2951 RMK AO2 PRESRR P0000 T10391056
KCLE 140651Z 04006KT 2 1/2SM -SN BR SCT008 BKN014 OVC025 M04/M06 A2950 RMK AO2 PRESRR SLP000 P0001 T10391056
KCLE 140637Z 03009KT 2SM -SN BR FEW012 BKN017 OVC029 M04/M06 A2948 RMK AO2 P0001 T10391056
KCLE 140603Z 04009KT 2SM -SN BR FEW019 SCT026 OVC031 M04/M06 A2944 RMK AO2 P0001 T10391056
KCLE 140646Z 03007KT 2 1/2SM -SN BR FEW008 BKN014 OVC029 M04/M06 A2949 RMK AO2 PRESRR P0001
KCLE 140551Z 03009KT 1 1/2SM -SN BR BKN019 OVC026 M04/M06 A2944 RMK AO2 SLP978 SNINCR 1/4 4/004 P0004 60018 T10441056 11039 21056 53015 
KCLE 140526Z 03009KT 1 1/4SM -SN BR SCT010 OVC016 M04/M06 A2942 RMK AO2 P0003 T10441061
KCLE 140451Z 04008KT 1SM -SN BR OVC012 M04/M06 A2940 RMK AO2 SLP967 P0003 T10391056 410391083   
KCLE 140411Z 13003KT 1 1/4SM -SN BR OVC014 M04/M06 A2939 RMK AO2 P0001 T10441056
KCLE 140351Z 15007KT 1SM -SN BR VV015 M04/M06 A2938 RMK AO2 SLP960 P0002 T10441061  
KCLE 140251Z 16011KT 1 1/4SM -SN BR OVC015 M05/M07 A2939 RMK AO2 SLP963 P0003 60009 T10501067 56043 
KCLE 140215Z 16013KT 1 1/4SM -SN BR OVC028 M05/M07 A2941 RMK AO2 P0001 T10501072
KCLE 140200Z 15011KT 3SM -SN BR FEW022 OVC030 M06/M08 A2942 RMK AO2 P0001 T10561078
KCLE 140151Z 16013KT 2SM -SN BR OVC018 M06/M07 A2942 RMK AO2 SLP974 P0002 T10561072 
KCLE 140127Z 15012G19KT 1 1/2SM -SN BR OVC017 M06/M08 A2944 RMK AO2 PRESFR P0002 T10561078
KCLE 140143Z 16013KT 1 1/4SM -SN BR OVC013 M06/M07 A2943 RMK AO2 P0002 T10561072
KCLE 140103Z 16011KT 2SM -SN BR OVC015 M06/M08 A2947 RMK AO2 P0001 T10561078
KCLE 140051Z 16012KT 1 1/4SM -SN BR OVC011 M06/M07 A2948 RMK AO2 SLP993 SNINCR 1/2 P0004 T10561072  
KCLE 140036Z 17011KT 1 1/4SM -SN BR OVC009 M06/M07 A2949 RMK AO2 P0003 T10561072
KCLE 140018Z 16011KT 3/4SM -SN BR VV009 M06/M07 A2951 RMK AO2 P0002 T10561072
KCLE 140002Z 17010KT 1 1/4SM -SN BR OVC013 M06/M08 A2952 RMK AO2 P0001 T10561078
KCLE 132351Z COR 18011KT 1 1/2SM -SN OVC017 M06/M08 A2952 RMK AO2 SLP008 4/001 P0000 60005 T10561083 11050 21061 51003